Home > Products > Valid Products > MTR

000
SAUS46 KLOX 062158
MTR9L2
METAR K9L2 062155Z AUTO 00000KT 10SM CLR 36/05 A2993 RMK AO2 SLP110
T03610050 TSNO $





000
SAUS46 KLOX 062149
MTRSDB
METAR KSDB 062148Z AUTO 18017G24KT 10SM CLR 31/03 A3015 RMK AO2
SLP146 T03110028 $





000
SAUS46 KLOX 062148
MTRCQT
METAR KCQT 062147Z AUTO 00000KT 10SM CLR 23/16 A3000 RMK AO2 SLP155
T02280161





000
SAUS46 KLOX 062057
MTR9L2
METAR K9L2 062055Z AUTO 15007KT 10SM CLR 37/06 A2995 RMK AO2 SLP118
T03670061 58020 TSNO $





000
SAUS46 KLOX 062049
MTRSDB
METAR KSDB 062048Z AUTO 18015KT 10SM CLR 31/02 A3016 RMK AO2 SLP151
T03060022 58004 $





000
SAUS46 KLOX 062049
MTRCQT
METAR KCQT 062047Z AUTO VRB03KT 9SM CLR 23/16 A3001 RMK AO2 SLP159
T02280156 58016





000
SAUS46 KLOX 062009
MTRCQT
SPECI KCQT 062008Z AUTO 00000KT 9SM SCT021 23/16 A3002 RMK AO2
T02280161





000
SAUS46 KLOX 061957
MTR9L2
METAR K9L2 061955Z AUTO 00000KT 10SM CLR 35/05 A2998 RMK AO2 SLP128
T03500050 TSNO $





000
SAUS46 KLOX 061949
MTRSDB
METAR KSDB 061948Z AUTO 18013G18KT 10SM CLR 31/06 A3018 RMK AO2
SLP156 T03060061 $





000
SAUS46 KLOX 061948
MTRCQT
METAR KCQT 061947Z AUTO 00000KT 10SM BKN020 23/16 A3002 RMK AO2
SLP164 T02280161





000
SAUS46 KLOX 061857
MTR9L2
METAR K9L2 061855Z AUTO VRB03KT 10SM CLR 33/08 A3000 RMK AO2 SLP136
T03280078 TSNO $





000
SAUS46 KLOX 061849
MTRSDB
METAR KSDB 061848Z AUTO 19010KT 10SM CLR 28/09 A3018 RMK AO2 SLP161
T02780094 $





000
SAUS46 KLOX 061849
MTRSDB
METAR KSDB 061848Z AUTO 19010KT 10SM CLR 28/09 A3018 RMK AO2 SLP161
T02780094 $





000
SAUS46 KLOX 061848
MTRCQT
METAR KCQT 061847Z AUTO VRB03KT 8SM OVC019 21/16 A3005 RMK AO2
SLP173 T02060156





000
SAUS46 KLOX 061757
MTR9L2
METAR K9L2 061755Z AUTO 10003KT 10SM CLR 31/09 A3001 RMK AO2 SLP140
T03110089 10311 20189 58001 $





000
SAUS46 KLOX 061757
MTR9L2
METAR K9L2 061755Z AUTO 10003KT 10SM CLR 31/09 A3001 RMK AO2 SLP140
T03110089 10311 20189 58001 $





000
SAUS46 KLOX 061749
MTRSDB
METAR KSDB 061748Z AUTO 18006KT 10SM CLR 27/10 A3018 RMK AO2 SLP160
T02720100 10289 20189 51005 $





000
SAUS46 KLOX 061748
MTRCQT
METAR KCQT 061747Z AUTO 00000KT 8SM OVC015 20/16 A3006 RMK AO2
SLP176 T02000156 10200 20178 50005





000
SAUS46 KLOX 061721
MTRCQT
SPECI KCQT 061720Z AUTO 00000KT 9SM OVC015 19/15 A3006 RMK AO2
T01940150





000
SAUS46 KLOX 061721
MTRCQT
SPECI KCQT 061720Z AUTO 00000KT 9SM OVC015 19/15 A3006 RMK AO2
T01940150





000
SAUS46 KLOX 061657
MTR9L2
METAR K9L2 061655Z AUTO 16004KT 10SM CLR 28/09 A3002 RMK AO2 SLP144
T02830089 TSNO $





000
SAUS46 KLOX 061657
MTR9L2
METAR K9L2 061655Z AUTO 16004KT 10SM CLR 28/09 A3002 RMK AO2 SLP144
T02830089 TSNO $





000
SAUS46 KLOX 061649
MTRSDB
METAR KSDB 061648Z AUTO 20007KT 10SM CLR 27/10 A3018 RMK AO2 SLP159
T02670100 $





000
SAUS46 KLOX 061648
MTRCQT
METAR KCQT 061647Z AUTO 00000KT 7SM OVC014 19/16 A3006 RMK AO2
SLP177 T01890156





000
SAUS46 KLOX 061648
MTRCQT
METAR KCQT 061647Z AUTO 00000KT 7SM OVC014 19/16 A3006 RMK AO2
SLP177 T01890156





000
SAUS46 KLOX 061558
MTR9L2
METAR K9L2 061555Z AUTO 00000KT 10SM CLR 25/08 A3002 RMK AO2 SLP146
T02500083 TSNO $





000
SAUS46 KLOX 061549
MTRSDB
METAR KSDB 061548Z AUTO VRB05KT 10SM CLR 24/11 A3017 RMK AO2 SLP159
T02440111 $





000
SAUS46 KLOX 061548
MTRCQT
METAR KCQT 061547Z AUTO 00000KT 8SM OVC014 19/15 A3005 RMK AO2
SLP175 T01890150





000
SAUS46 KLOX 061548
MTRCQT
METAR KCQT 061547Z AUTO 00000KT 8SM OVC014 19/15 A3005 RMK AO2
SLP175 T01890150





000
SAUS46 KLOX 061500
MTR9L2
METAR K9L2 061455Z AUTO 12003KT 10SM CLR 23/08 A3001 RMK AO2 SLP143
T02280078 51009 TSNO $





000
SAUS46 KLOX 061449
MTRSDB
METAR KSDB 061448Z AUTO 33009KT 10SM CLR 22/11 A3016 RMK AO2 SLP156
T02220106 51007 $





000
SAUS46 KLOX 061448
MTRCQT
METAR KCQT 061447Z AUTO 00000KT 8SM OVC014 19/15 A3004 RMK AO2
SLP171 T01890150 51011





000
SAUS46 KLOX 061358
MTR9L2
METAR K9L2 061355Z AUTO 00000KT 10SM CLR 21/07 A3001 RMK AO2 SLP142
T02060072 TSNO $





000
SAUS46 KLOX 061358
MTR9L2
METAR K9L2 061355Z AUTO 00000KT 10SM CLR 21/07 A3001 RMK AO2 SLP142
T02060072 TSNO $





000
SAUS46 KLOX 061349
MTRSDB
METAR KSDB 061348Z AUTO 32007KT 10SM CLR 21/09 A3016 RMK AO2 SLP153
T02110094





000
SAUS46 KLOX 061348
MTRCQT
METAR KCQT 061347Z AUTO 00000KT 8SM OVC014 18/15 A3003 RMK AO2
SLP168 T01830150





000
SAUS46 KLOX 061348
MTRCQT
METAR KCQT 061347Z AUTO 00000KT 8SM OVC014 18/15 A3003 RMK AO2
SLP168 T01830150





000
SAUS46 KLOX 061257
MTR9L2
METAR K9L2 061255Z AUTO 20003KT 10SM CLR 19/07 A3000 RMK AO2 SLP138
T01940067 TSNO $





000
SAUS46 KLOX 061249
MTRSDB
METAR KSDB 061248Z AUTO 33011KT 10SM CLR 19/08 A3015 RMK AO2 SLP149
T01940083 $





000
SAUS46 KLOX 061249
MTRSDB
METAR KSDB 061248Z AUTO 33011KT 10SM CLR 19/08 A3015 RMK AO2 SLP149
T01940083 $





000
SAUS46 KLOX 061248
MTRCQT
METAR KCQT 061247Z AUTO 00000KT 10SM OVC014 18/15 A3002 RMK AO2
SLP165 T01830150





000
SAUS46 KLOX 061200
MTR9L2
METAR K9L2 061155Z AUTO 19007KT 10SM CLR 20/07 A2999 RMK AO2 SLP132
T02000067 10261 20200 51004 TSNO $





000
SAUS46 KLOX 061200
MTR9L2
METAR K9L2 061155Z AUTO 19007KT 10SM CLR 20/07 A2999 RMK AO2 SLP132
T02000067 10261 20200 51004 TSNO $





000
SAUS46 KLOX 061149
MTRSDB
METAR KSDB 061148Z AUTO 34015KT 10SM CLR 19/08 A3014 RMK AO2 SLP145
T01890078 10217 20189 56001 $





000
SAUS46 KLOX 061148
MTRCQT
METAR KCQT 061147Z AUTO 00000KT 10SM OVC013 18/15 A3001 RMK AO2
SLP159 T01830150 10189 20178 56004





000
SAUS46 KLOX 061058
MTR9L2
METAR K9L2 061055Z AUTO 21005KT 10SM CLR 21/07 A2998 RMK AO2 SLP129
T02110072 TSNO $





000
SAUS46 KLOX 061049
MTRSDB
METAR KSDB 061048Z AUTO 33020KT 10SM CLR 19/08 A3014 RMK AO2 PK WND
32026/1042 SLP143 T01940083 $





000
SAUS46 KLOX 061049
MTRSDB
METAR KSDB 061048Z AUTO 33020KT 10SM CLR 19/08 A3014 RMK AO2 PK WND
32026/1042 SLP143 T01940083 $





000
SAUS46 KLOX 061048
MTRCQT
METAR KCQT 061047Z AUTO 00000KT 10SM OVC013 18/15 A3001 RMK AO2
SLP159 T01830150





000
SAUS46 KLOX 061048
MTRCQT
METAR KCQT 061047Z AUTO 00000KT 10SM OVC013 18/15 A3001 RMK AO2
SLP159 T01830150





000
SAUS46 KLOX 060957
MTR9L2
METAR K9L2 060955Z AUTO 15012KT 10SM CLR 22/05 A2998 RMK AO2 SLP129
T02170050 TSNO $





000
SAUS46 KLOX 060949
MTRSDB
METAR KSDB 060948Z AUTO 32012KT 10SM CLR 20/08 A3014 RMK AO2 SLP141
T02000078 $





000
SAUS46 KLOX 060948
MTRCQT
METAR KCQT 060947Z AUTO 00000KT 9SM OVC014 18/15 A3001 RMK AO2
SLP159 T01830150





000
SAUS46 KLOX 060948
MTRCQT
METAR KCQT 060947Z AUTO 00000KT 9SM OVC014 18/15 A3001 RMK AO2
SLP159 T01830150





000
SAUS46 KLOX 060857
MTR9L2
METAR K9L2 060855Z AUTO 00000KT 10SM CLR 23/09 A2997 RMK AO2 SLP124
T02330089 53007 TSNO $





000
SAUS46 KLOX 060857
MTR9L2
METAR K9L2 060855Z AUTO 00000KT 10SM CLR 23/09 A2997 RMK AO2 SLP124
T02330089 53007 TSNO $





000
SAUS46 KLOX 060849
MTRSDB
METAR KSDB 060848Z AUTO 33016G20KT 10SM CLR 21/08 A3014 RMK AO2
SLP142 T02110083 55002 $





000
SAUS46 KLOX 060848
MTRCQT
METAR KCQT 060847Z AUTO 00000KT 10SM OVC014 19/15 A3002 RMK AO2
SLP162 T01890150 55001





000
SAUS46 KLOX 060848
MTRCQT
METAR KCQT 060847Z AUTO 00000KT 10SM OVC014 19/15 A3002 RMK AO2
SLP162 T01890150 55001





000
SAUS46 KLOX 060800
MTR9L2
METAR K9L2 060755Z AUTO 20011KT 10SM CLR 24/05 A2996 RMK AO2 SLP119
T02440050 403830211 TSNO $





000
SAUS46 KLOX 060800
MTR9L2
METAR K9L2 060755Z AUTO 20011KT 10SM CLR 24/05 A2996 RMK AO2 SLP119
T02440050 403830211 TSNO $





000
SAUS46 KLOX 060749
MTRSDB
METAR KSDB 060748Z AUTO 29009KT 10SM CLR 20/09 A3014 RMK AO2 SLP143
T02000094 403170178 $





000
SAUS46 KLOX 060748
MTRCQT
METAR KCQT 060747Z AUTO 00000KT 10SM OVC014 19/15 A3001 RMK AO2
SLP160 T01890150 402390178





000
SAUS46 KLOX 060658
MTR9L2
METAR K9L2 060655Z AUTO 22013KT 10SM CLR 25/05 A2995 RMK AO2 SLP118
T02500050 TSNO $





000
SAUS46 KLOX 060658
MTR9L2
METAR K9L2 060655Z AUTO 22013KT 10SM CLR 25/05 A2995 RMK AO2 SLP118
T02500050 TSNO $





000
SAUS46 KLOX 060649
MTRSDB
METAR KSDB 060648Z AUTO 28011KT 10SM CLR 21/09 A3014 RMK AO2 SLP142
T02060094 $





000
SAUS46 KLOX 060648
MTRCQT
METAR KCQT 060647Z AUTO 00000KT 10SM OVC013 19/15 A3001 RMK AO2
SLP158 T01890150





000
SAUS46 KLOX 060648
MTRCQT
METAR KCQT 060647Z AUTO 00000KT 10SM OVC013 19/15 A3001 RMK AO2
SLP158 T01890150





000
SAUS46 KLOX 060558
MTR9L2
METAR K9L2 060555Z AUTO 23013KT 10SM CLR 26/03 A2995 RMK AO2 SLP118
T02610028 10367 20261 51020 TSNO $





000
SAUS46 KLOX 060558
MTR9L2
METAR K9L2 060555Z AUTO 23013KT 10SM CLR 26/03 A2995 RMK AO2 SLP118
T02610028 10367 20261 51020 TSNO $





000
SAUS46 KLOX 060549
MTRSDB
METAR KSDB 060548Z AUTO 25006KT 10SM CLR 21/08 A3015 RMK AO2 SLP148
T02060083 10294 20206 53012 $





000
SAUS46 KLOX 060549
MTRSDB
METAR KSDB 060548Z AUTO 25006KT 10SM CLR 21/08 A3015 RMK AO2 SLP148
T02060083 10294 20206 53012 $





000
SAUS46 KLOX 060548
MTRCQT
METAR KCQT 060547Z AUTO 00000KT 10SM OVC014 19/15 A3002 RMK AO2
SLP164 T01890150 10222 20189 53019





000
SAUS46 KLOX 060548
MTRCQT
METAR KCQT 060547Z AUTO 00000KT 10SM OVC014 19/15 A3002 RMK AO2
SLP164 T01890150 10222 20189 53019





000
SAUS46 KLOX 060459
MTR9L2
METAR K9L2 060455Z AUTO 23014KT 10SM CLR 26/03 A2995 RMK AO2 SLP118
T02610028 TSNO $





000
SAUS46 KLOX 060459
MTR9L2
METAR K9L2 060455Z AUTO 23014KT 10SM CLR 26/03 A2995 RMK AO2 SLP118
T02610028 TSNO $





000
SAUS46 KLOX 060449
MTRSDB
METAR KSDB 060448Z AUTO 25006KT 10SM CLR 21/07 A3014 RMK AO2 SLP145
T02110072 $





000
SAUS46 KLOX 060449
MTRSDB
METAR KSDB 060448Z AUTO 25006KT 10SM CLR 21/07 A3014 RMK AO2 SLP145
T02110072 $





000
SAUS46 KLOX 060448
MTRCQT
METAR KCQT 060447Z AUTO 00000KT 10SM OVC014 19/15 A3001 RMK AO2
SLP160 T01890150





000
SAUS46 KLOX 060448
MTRCQT
METAR KCQT 060447Z AUTO 00000KT 10SM OVC014 19/15 A3001 RMK AO2
SLP160 T01890150





000
SAUS46 KLOX 060400
MTR9L2
METAR K9L2 060355Z AUTO 23014G19KT 10SM CLR 28/01 A2991 RMK AO2
SLP107 T02780011 TSNO $





000
SAUS46 KLOX 060349
MTRSDB
METAR KSDB 060348Z AUTO 24003KT 10SM CLR 23/06 A3011 RMK AO2 SLP139
T02280061 $





000
SAUS46 KLOX 060348
MTRCQT
METAR KCQT 060347Z AUTO VRB03KT 10SM OVC014 19/15 A2998 RMK AO2
SLP150 T01890150





000
SAUS46 KLOX 060257
MTR9L2
METAR K9L2 060255Z AUTO 23020G25KT 10SM CLR 31/M01 A2989 RMK AO2 PK
WND 22027/0219 SLP099 T03061011 53013 TSNO $





000
SAUS46 KLOX 060249
MTRSDB
METAR KSDB 060248Z AUTO VRB03KT 10SM CLR 23/06 A3011 RMK AO2 SLP139
T02330056 53007 $





000
SAUS46 KLOX 060249
MTRSDB
METAR KSDB 060248Z AUTO VRB03KT 10SM CLR 23/06 A3011 RMK AO2 SLP139
T02330056 53007 $





000
SAUS46 KLOX 060248
MTRCQT
METAR KCQT 060247Z AUTO VRB04KT 10SM OVC014 19/15 A2997 RMK AO2
SLP146 T01940150 53008





000
SAUS46 KLOX 060248
MTRCQT
METAR KCQT 060247Z AUTO VRB04KT 10SM OVC014 19/15 A2997 RMK AO2
SLP146 T01940150 53008





000
SAUS46 KLOX 060224
MTRCQT
SPECI KCQT 060223Z AUTO 00000KT 10SM OVC014 19/15 A2996 RMK AO2
T01940150





000
SAUS46 KLOX 060157
MTR9L2
METAR K9L2 060155Z AUTO 23021G27KT 10SM CLR 33/03 A2987 RMK AO2 PK
WND 22031/0057 SLP092 T03330033 TSNO $





000
SAUS46 KLOX 060149
MTRCQT
METAR KCQT 060147Z AUTO 00000KT 10SM OVC015 20/15 A2995 RMK AO2
SLP140 T02000150





000
SAUS46 KLOX 060149
MTRCQT
METAR KCQT 060147Z AUTO 00000KT 10SM OVC015 20/15 A2995 RMK AO2
SLP140 T02000150





000
SAUS46 KLOX 060149
MTRSDB
METAR KSDB 060148Z AUTO 21006KT 10SM CLR 26/02 A3010 RMK AO2 SLP133
T02610017 $





000
SAUS46 KLOX 060127
MTRCQT
SPECI KCQT 060126Z AUTO VRB04KT 10SM BKN017 20/15 A2995 RMK AO2
T02000150





000
SAUS46 KLOX 060057
MTR9L2
METAR K9L2 060055Z AUTO 23023G29KT 10SM CLR 35/05 A2986 RMK AO2 PK
WND 24032/0023 SLP088 T03500050 TSNO $





000
SAUS46 KLOX 060049
MTRSDB
METAR KSDB 060048Z AUTO 18011KT 10SM CLR 28/01 A3008 RMK AO2 SLP127
T02780006 $





000
SAUS46 KLOX 060048
MTRCQT
METAR KCQT 060047Z AUTO VRB03KT 10SM SCT017 21/15 A2994 RMK AO2
SLP137 T02060150





000
SAUS46 KLOX 052357
MTR9L2
METAR K9L2 052355Z AUTO 24022G28KT 10SM CLR 37/02 A2985 RMK AO2 PK
WND 22031/2259 SLP084 T03670022 10383 20333 56012 $





000
SAUS46 KLOX 052349
MTRSDB
METAR KSDB 052348Z AUTO 18014G23KT 10SM CLR 29/05 A3008 RMK AO2
SLP125 T02940050 10317 20283 57007 $





000
SAUS46 KLOX 052348
MTRCQT
METAR KCQT 052347Z AUTO VRB03KT 10SM SCT019 22/16 A2994 RMK AO2
SLP137 T02170156 10239 20206 56007





000
SAUS46 KLOX 052257
MTR9L2
METAR K9L2 052255Z AUTO 24024G29KT 10SM CLR 37/03 A2985 RMK AO2 PK
WND 25029/2255 SLP084 T03720033 TSNO $





000
SAUS46 KLOX 052249
MTRSDB
METAR KSDB 052248Z AUTO 19014G21KT 10SM CLR 30/07 A3009 RMK AO2
SLP130 T03000067 $





000
SAUS46 KLOX 052249
MTRCQT
METAR KCQT 052247Z AUTO VRB04KT 10SM CLR 23/16 A2995 RMK AO2 SLP139
T02280156





000
SAUS46 KLOX 052249
MTRSDB
METAR KSDB 052248Z AUTO 19014G21KT 10SM CLR 30/07 A3009 RMK AO2
SLP130 T03000067 $





000
SAUS46 KLOX 052157
MTR9L2
METAR K9L2 052155Z AUTO 24019G25KT 10SM CLR 38/04 A2987 RMK AO2
SLP090 T03780044 TSNO $





000
SAUS46 KLOX 052149
MTRSDB
METAR KSDB 052148Z AUTO 18014G22KT 10SM CLR 31/07 A3010 RMK AO2
SLP130 T03060067 $





000
SAUS46 KLOX 052149
MTRSDB
METAR KSDB 052148Z AUTO 18014G22KT 10SM CLR 31/07 A3010 RMK AO2
SLP130 T03060067 $





000
SAUS46 KLOX 052148
MTRCQT
METAR KCQT 052147Z AUTO VRB04KT 10SM CLR 24/16 A2995 RMK AO2 SLP139
T02390161





000
SAUS46 KLOX 052058
MTR9L2
METAR K9L2 052055Z AUTO 24014G21KT 10SM CLR 38/04 A2989 RMK AO2
SLP094 T03780044 58014 TSNO $





000
SAUS46 KLOX 052049
MTRSDB
METAR KSDB 052048Z AUTO 20016G21KT 10SM CLR 31/04 A3011 RMK AO2
SLP134 T03060044 58003 $





000
SAUS46 KLOX 052049
MTRSDB
METAR KSDB 052048Z AUTO 20016G21KT 10SM CLR 31/04 A3011 RMK AO2
SLP134 T03060044 58003 $





000
SAUS46 KLOX 052048
MTRCQT
METAR KCQT 052047Z AUTO VRB05KT 10SM FEW026 24/16 A2996 RMK AO2
SLP143 T02390156 58009





000
SAUS46 KLOX 052027
MTRCQT
SPECI KCQT 052025Z AUTO 10SM SCT026 24/16 A2997 RMK AO2 T02390156





000
SAUS46 KLOX 052023
MTRCQT
SPECI KCQT 052021Z AUTO 00000KT 10SM BKN026 24/16 A2997 RMK AO2
T02390161





000
SAUS46 KLOX 052011
MTRCQT
SPECI KCQT 052010Z AUTO VRB04KT 10SM SCT026 24/16 A2997 RMK AO2
T02390156





000
SAUS46 KLOX 052011
MTRCQT
SPECI KCQT 052010Z AUTO VRB04KT 10SM SCT026 24/16 A2997 RMK AO2
T02390156





000
SAUS46 KLOX 051958
MTR9L2
METAR K9L2 051955Z AUTO 21007G16KT 10SM CLR 37/05 A2991 RMK AO2
SLP101 T03720050 $





000
SAUS46 KLOX 051958
MTR9L2
METAR K9L2 051955Z AUTO 21007G16KT 10SM CLR 37/05 A2991 RMK AO2
SLP101 T03720050 $





000
SAUS46 KLOX 051949
MTRSDB
METAR KSDB 051948Z AUTO 16011KT 130V190 10SM CLR 30/06 A3012 RMK AO2
SLP140 T03000061 $





000
SAUS46 KLOX 051948
MTRCQT
METAR KCQT 051947Z AUTO 00000KT 10SM OVC025 23/16 A2998 RMK AO2
SLP149 T02330156





000
SAUS46 KLOX 051857
MTR9L2
METAR K9L2 051855Z AUTO 23006KT 10SM CLR 36/07 A2992 RMK AO2 SLP106
T03560072 $





000
SAUS46 KLOX 051857
MTR9L2
METAR K9L2 051855Z AUTO 23006KT 10SM CLR 36/07 A2992 RMK AO2 SLP106
T03560072 $





000
SAUS46 KLOX 051849
MTRSDB
METAR KSDB 051848Z AUTO 18011G19KT 10SM CLR 30/06 A3013 RMK AO2
SLP141 T03000056 $





000
SAUS46 KLOX 051848
MTRCQT
METAR KCQT 051847Z AUTO VRB03KT 9SM OVC022 22/16 A2999 RMK AO2
SLP155 T02220156





000
SAUS46 KLOX 051757
MTR9L2
METAR K9L2 051755Z AUTO 14004KT 10SM CLR 33/09 A2993 RMK AO2 SLP110
T03330094 10333 20211 58005 $





000
SAUS46 KLOX 051757
MTR9L2
METAR K9L2 051755Z AUTO 14004KT 10SM CLR 33/09 A2993 RMK AO2 SLP110
T03330094 10333 20211 58005 $





000
SAUS46 KLOX 051749
MTRSDB
METAR KSDB 051748Z AUTO 21010KT 10SM CLR 28/08 A3012 RMK AO2 SLP137
T02830083 10283 20178 52005 $





000
SAUS46 KLOX 051748
MTRCQT
METAR KCQT 051747Z AUTO 00000KT 7SM OVC020 21/15 A2999 RMK AO2
SLP153 T02060150 10211 20189 53006





000
SAUS46 KLOX 051658
MTR9L2
METAR K9L2 051655Z AUTO 14004KT 10SM CLR 31/09 A2993 RMK AO2 SLP113
T03060094 $





000
SAUS46 KLOX 051649
MTRSDB
METAR KSDB 051648Z AUTO 22009KT 10SM CLR 26/10 A3011 RMK AO2 SLP139
T02610100 $





000
SAUS46 KLOX 051648
MTRCQT
METAR KCQT 051647Z AUTO 00000KT 7SM OVC019 20/15 A2998 RMK AO2
SLP150 T02000150





000
SAUS46 KLOX 051557
MTR9L2
METAR K9L2 051555Z AUTO 16005KT 10SM CLR 28/09 A2994 RMK AO2 SLP116
T02780094 TSNO $





000
SAUS46 KLOX 051549
MTRSDB
METAR KSDB 051548Z AUTO 21009KT 10SM CLR 23/10 A3011 RMK AO2 SLP137
T02330100 $





000
SAUS46 KLOX 051548
MTRCQT
METAR KCQT 051547Z AUTO VRB03KT 8SM OVC018 19/15 A2998 RMK AO2
SLP150 T01940150





000
SAUS46 KLOX 051548
MTRCQT
METAR KCQT 051547Z AUTO VRB03KT 8SM OVC018 19/15 A2998 RMK AO2
SLP150 T01940150





000
SAUS46 KLOX 051457
MTR9L2
METAR K9L2 051455Z AUTO 15003KT 10SM CLR 24/09 A2994 RMK AO2 SLP118
T02440094 51013 $





000
SAUS46 KLOX 051449
MTRSDB
METAR KSDB 051448Z AUTO 22008KT 10SM CLR 21/09 A3010 RMK AO2 SLP136
T02110094 53010





000
SAUS46 KLOX 051448
MTRCQT
METAR KCQT 051447Z AUTO 00000KT 7SM OVC017 19/15 A2997 RMK AO2
SLP147 T01940150 53014





000
SAUS46 KLOX 051357
MTR9L2
METAR K9L2 051355Z AUTO 19004KT 10SM CLR 23/09 A2994 RMK AO2 SLP115
T02280089 $





000
SAUS46 KLOX 051349
MTRSDB
METAR KSDB 051348Z AUTO 22007KT 10SM CLR 20/10 A3009 RMK AO2 SLP129
T02000100





000
SAUS46 KLOX 051349
MTRSDB
METAR KSDB 051348Z AUTO 22007KT 10SM CLR 20/10 A3009 RMK AO2 SLP129
T02000100





000
SAUS46 KLOX 051348
MTRCQT
METAR KCQT 051347Z AUTO 00000KT 6SM HZ OVC017 19/14 A2995 RMK AO2
SLP142 T01890144





000
SAUS46 KLOX 051257
MTR9L2
METAR K9L2 051255Z AUTO 19004KT 10SM CLR 22/09 A2992 RMK AO2 SLP108
T02170094 $





000
SAUS46 KLOX 051257
MTR9L2
METAR K9L2 051255Z AUTO 19004KT 10SM CLR 22/09 A2992 RMK AO2 SLP108
T02170094 $





000
SAUS46 KLOX 051249
MTRSDB
METAR KSDB 051248Z AUTO 23007KT 10SM CLR 19/11 A3007 RMK AO2 SLP123
T01940106





000
SAUS46 KLOX 051249
MTRSDB
METAR KSDB 051248Z AUTO 23007KT 10SM CLR 19/11 A3007 RMK AO2 SLP123
T01940106





000
SAUS46 KLOX 051248
MTRCQT
METAR KCQT 051247Z AUTO 00000KT 7SM OVC016 19/14 A2994 RMK AO2
SLP136 T01890144





000
SAUS46 KLOX 051248
MTRCQT
METAR KCQT 051247Z AUTO 00000KT 7SM OVC016 19/14 A2994 RMK AO2
SLP136 T01890144





000
SAUS46 KLOX 051157
MTR9L2
METAR K9L2 051155Z AUTO 18010KT 10SM CLR 22/09 A2990 RMK AO2 SLP101
T02220089 10261 20222 51006 TSNO $





000
SAUS46 KLOX 051149
MTRSDB
METAR KSDB 051148Z AUTO 23007KT 10SM CLR 19/11 A3007 RMK AO2 SLP118
T01940106 10217 20178 55000





000
SAUS46 KLOX 051149
MTRSDB
METAR KSDB 051148Z AUTO 23007KT 10SM CLR 19/11 A3007 RMK AO2 SLP118
T01940106 10217 20178 55000





000
SAUS46 KLOX 051148
MTRCQT
METAR KCQT 051147Z AUTO 00000KT 8SM OVC015 19/14 A2993 RMK AO2
SLP133 T01890144 10189 20172 55002





000
SAUS46 KLOX 051148
MTRCQT
METAR KCQT 051147Z AUTO 00000KT 8SM OVC015 19/14 A2993 RMK AO2
SLP133 T01890144 10189 20172 55002





000
SAUS46 KLOX 051057
MTR9L2
METAR K9L2 051055Z AUTO 16007KT 10SM CLR 23/09 A2990 RMK AO2 SLP100
T02280094 TSNO $





000
SAUS46 KLOX 051049
MTRSDB
METAR KSDB 051048Z AUTO 23005KT 10SM CLR 18/12 A3006 RMK AO2 SLP118
T01780117





000
SAUS46 KLOX 051048
MTRCQT
METAR KCQT 051047Z AUTO 00000KT 8SM OVC015 19/14 A2993 RMK AO2
SLP132 T01890144





000
SAUS46 KLOX 051048
MTRCQT
METAR KCQT 051047Z AUTO 00000KT 8SM OVC015 19/14 A2993 RMK AO2
SLP132 T01890144





000
SAUS46 KLOX 050957
MTR9L2
METAR K9L2 050955Z AUTO 17005KT 10SM CLR 23/09 A2989 RMK AO2 SLP097
T02330094 TSNO $





000
SAUS46 KLOX 050949
MTRSDB
METAR KSDB 050948Z AUTO 22008KT 10SM CLR 19/11 A3006 RMK AO2 SLP116
T01890111





000
SAUS46 KLOX 050948
MTRCQT
METAR KCQT 050947Z AUTO 00000KT 9SM OVC015 18/15 A2993 RMK AO2
SLP133 T01830150





000
SAUS46 KLOX 050933
MTRCQT
SPECI KCQT 050930Z AUTO 00000KT 9SM OVC015 18/15 A2993 RMK AO2
T01830150





000
SAUS46 KLOX 050858
MTR9L2
METAR K9L2 050855Z AUTO 21009KT 10SM CLR 25/10 A2989 RMK AO2 SLP094
T02500100 58001 TSNO $





000
SAUS46 KLOX 050858
MTR9L2
METAR K9L2 050855Z AUTO 21009KT 10SM CLR 25/10 A2989 RMK AO2 SLP094
T02500100 58001 TSNO $





000
SAUS46 KLOX 050849
MTRSDB
METAR KSDB 050848Z AUTO 22007KT 10SM CLR 18/12 A3007 RMK AO2 SLP118
T01780117 58004





000
SAUS46 KLOX 050849
MTRSDB
METAR KSDB 050848Z AUTO 22007KT 10SM CLR 18/12 A3007 RMK AO2 SLP118
T01780117 58004





000
SAUS46 KLOX 050848
MTRCQT
METAR KCQT 050847Z AUTO 00000KT 10SM OVC012 18/15 A2994 RMK AO2
SLP134 T01830150 58001





000
SAUS46 KLOX 050848
MTRCQT
METAR KCQT 050847Z AUTO 00000KT 10SM OVC012 18/15 A2994 RMK AO2
SLP134 T01830150 58001





000
SAUS46 KLOX 050758
MTR9L2
METAR K9L2 050755Z AUTO 21011KT 10SM CLR 26/09 A2989 RMK AO2 SLP096
T02560094 404000183 TSNO $





000
SAUS46 KLOX 050749
MTRSDB
METAR KSDB 050748Z AUTO 23006KT 10SM CLR 19/11 A3008 RMK AO2 SLP121
T01890111 403280183





000
SAUS46 KLOX 050749
MTRCQT
METAR KCQT 050747Z AUTO 00000KT 10SM OVC010 18/15 A2994 RMK AO2
SLP135 T01780150 402610172





000
SAUS46 KLOX 050723
MTRCQT
SPECI KCQT 050722Z AUTO 00000KT 8SM OVC010 18/15 A2994 RMK AO2
T01780150





000
SAUS46 KLOX 050700
MTR9L2
METAR K9L2 050655Z AUTO 21009KT 10SM CLR 26/09 A2989 RMK AO2 SLP095
T02560094 TSNO $





000
SAUS46 KLOX 050700
MTR9L2
METAR K9L2 050655Z AUTO 21009KT 10SM CLR 26/09 A2989 RMK AO2 SLP095
T02560094 TSNO $





000
SAUS46 KLOX 050649
MTRSDB
METAR KSDB 050648Z AUTO 23007KT 10SM CLR 19/11 A3008 RMK AO2 SLP121
T01890111





000
SAUS46 KLOX 050649
MTRSDB
METAR KSDB 050648Z AUTO 23007KT 10SM CLR 19/11 A3008 RMK AO2 SLP121
T01890111





000
SAUS46 KLOX 050648
MTRCQT
METAR KCQT 050647Z AUTO 00000KT 6SM HZ OVC009 18/15 A2994 RMK AO2
SLP136 T01780150





000
SAUS46 KLOX 050648
MTRCQT
METAR KCQT 050647Z AUTO 00000KT 6SM HZ OVC009 18/15 A2994 RMK AO2
SLP136 T01780150





000
SAUS46 KLOX 050558
MTR9L2
METAR K9L2 050555Z AUTO 21009KT 10SM CLR 26/09 A2989 RMK AO2 SLP098
T02610089 10383 20261 51024 TSNO $





000
SAUS46 KLOX 050558
MTR9L2
METAR K9L2 050555Z AUTO 21009KT 10SM CLR 26/09 A2989 RMK AO2 SLP098
T02610089 10383 20261 51024 TSNO $





000
SAUS46 KLOX 050549
MTRSDB
METAR KSDB 050548Z AUTO 24006KT 10SM CLR 22/10 A3008 RMK AO2 SLP122
T02170100 10306 20200 51012





000
SAUS46 KLOX 050549
MTRCQT
METAR KCQT 050547Z AUTO 00000KT 5SM HZ OVC008 17/14 A2994 RMK AO2
SLP137 T01720144 10239 20172 51020





000
SAUS46 KLOX 050513
MTRCQT
SPECI KCQT 050512Z AUTO VRB03KT 4SM HZ OVC009 18/15 A2993 RMK AO2
T01780150





000
SAUS46 KLOX 050513
MTRCQT
SPECI KCQT 050512Z AUTO VRB03KT 4SM HZ OVC009 18/15 A2993 RMK AO2
T01780150





000
SAUS46 KLOX 050457
MTR9L2
METAR K9L2 050455Z AUTO 23013KT 10SM CLR 27/09 A2988 RMK AO2 SLP095
T02720089 TSNO $





000
SAUS46 KLOX 050449
MTRSDB
METAR KSDB 050448Z AUTO 23005KT 10SM CLR 20/11 A3008 RMK AO2 SLP124
T02000106





000
SAUS46 KLOX 050448
MTRCQT
METAR KCQT 050447Z AUTO 00000KT 6SM HZ OVC010 18/15 A2992 RMK AO2
SLP131 T01830150





000
SAUS46 KLOX 050358
MTR9L2
METAR K9L2 050355Z AUTO 23015KT 10SM CLR 30/05 A2984 RMK AO2 SLP081
T03000050 TSNO $





000
SAUS46 KLOX 050349
MTRSDB
METAR KSDB 050348Z AUTO 22003KT 10SM CLR 23/08 A3006 RMK AO2 SLP115
T02330083





000
SAUS46 KLOX 050348
MTRCQT
METAR KCQT 050347Z AUTO 00000KT 10SM OVC011 18/15 A2990 RMK AO2 CIG
009V013 SLP123 T01780150





000
SAUS46 KLOX 050348
MTRCQT
METAR KCQT 050347Z AUTO 00000KT 10SM OVC011 18/15 A2990 RMK AO2 CIG
009V013 SLP123 T01780150





000
SAUS46 KLOX 050313
MTRCQT
SPECI KCQT 050312Z AUTO VRB06KT 10SM BKN012 19/15 A2989 RMK AO2
T01890150





000
SAUS46 KLOX 050300
MTR9L2
METAR K9L2 050255Z AUTO 23018G26KT 10SM CLR 32/01 A2981 RMK AO2 PK
WND 22026/0249 SLP072 T03220006 53009 TSNO $





000
SAUS46 KLOX 050300
MTR9L2
METAR K9L2 050255Z AUTO 23018G26KT 10SM CLR 32/01 A2981 RMK AO2 PK
WND 22026/0249 SLP072 T03220006 53009 TSNO $





000
SAUS46 KLOX 050249
MTRSDB
METAR KSDB 050248Z AUTO 21009KT 10SM CLR 24/10 A3004 RMK AO2 SLP109
T02390100 53002





000
SAUS46 KLOX 050249
MTRSDB
METAR KSDB 050248Z AUTO 21009KT 10SM CLR 24/10 A3004 RMK AO2 SLP109
T02390100 53002





000
SAUS46 KLOX 050248
MTRCQT
METAR KCQT 050247Z AUTO 00000KT 10SM FEW013 19/15 A2988 RMK AO2
SLP117 T01890150 53010





000
SAUS46 KLOX 050157
MTR9L2
METAR K9L2 050155Z AUTO 23023G29KT 10SM CLR 34/03 A2979 RMK AO2 PK
WND 24031/0058 SLP068 T03390033 TSNO $





000
SAUS46 KLOX 050157
MTR9L2
METAR K9L2 050155Z AUTO 23023G29KT 10SM CLR 34/03 A2979 RMK AO2 PK
WND 24031/0058 SLP068 T03390033 TSNO $





000
SAUS46 KLOX 050149
MTRCQT
METAR KCQT 050147Z AUTO VRB04KT 10SM FEW015 21/16 A2986 RMK AO2
SLP109 T02060156





000
SAUS46 KLOX 050149
MTRSDB
METAR KSDB 050148Z AUTO 20008KT 10SM CLR 27/09 A3002 RMK AO2 SLP103
T02720094





000
SAUS46 KLOX 050057
MTR9L2
METAR K9L2 050055Z AUTO 23024G30KT 10SM CLR 36/05 A2978 RMK AO2 PK
WND 24032/0032 SLP064 T03560050 TSNO $





000
SAUS46 KLOX 050057
MTR9L2
METAR K9L2 050055Z AUTO 23024G30KT 10SM CLR 36/05 A2978 RMK AO2 PK
WND 24032/0032 SLP064 T03560050 TSNO $





000
SAUS46 KLOX 050049
MTRSDB
METAR KSDB 050048Z AUTO 21009KT 170V230 10SM CLR 29/08 A3002 RMK AO2
SLP101 T02890078





000
SAUS46 KLOX 050049
MTRSDB
METAR KSDB 050048Z AUTO 21009KT 170V230 10SM CLR 29/08 A3002 RMK AO2
SLP101 T02890078





000
SAUS46 KLOX 050048
MTRCQT
METAR KCQT 050047Z AUTO VRB03KT 10SM CLR 23/16 A2985 RMK AO2 SLP105
T02280156





000
SAUS46 KLOX 050048
MTRCQT
METAR KCQT 050047Z AUTO VRB03KT 10SM CLR 23/16 A2985 RMK AO2 SLP105
T02280156





000
SAUS46 KLOX 042357
MTR9L2
METAR K9L2 042355Z AUTO 24018G25KT 10SM CLR 38/05 A2979 RMK AO2 PK
WND 24026/2329 SLP062 T03830050 10400 20328 56016 TSNO $





000
SAUS46 KLOX 042349
MTRSDB
METAR KSDB 042348Z AUTO 18014G21KT 10SM CLR 31/08 A3003 RMK AO2
SLP103 T03060083 10328 20300 56007





000
SAUS46 KLOX 042349
MTRCQT
METAR KCQT 042347Z AUTO VRB03KT 10SM CLR 23/16 A2985 RMK AO2 SLP105
T02330156 10261 20228 58012





000
SAUS46 KLOX 042257
MTR9L2
METAR K9L2 042255Z AUTO 26009G16KT 10SM CLR 39/03 A2979 RMK AO2
SLP063 T03890028 TSNO $





000
SAUS46 KLOX 042257
MTR9L2
METAR K9L2 042255Z AUTO 26009G16KT 10SM CLR 39/03 A2979 RMK AO2
SLP063 T03890028 TSNO $





000
SAUS46 KLOX 042249
MTRSDB
METAR KSDB 042248Z AUTO 17015G24KT 10SM CLR 31/08 A3004 RMK AO2
SLP103 T03110078





000
SAUS46 KLOX 042249
MTRCQT
METAR KCQT 042247Z AUTO VRB04KT 10SM CLR 23/16 A2987 RMK AO2 SLP112
T02330156





000
SAUS46 KLOX 042249
MTRSDB
METAR KSDB 042248Z AUTO 17015G24KT 10SM CLR 31/08 A3004 RMK AO2
SLP103 T03110078





000
SAUS46 KLOX 042158
MTR9L2
METAR K9L2 042155Z AUTO 22005KT 10SM CLR 39/01 A2982 RMK AO2 SLP071
T03890006 TSNO $





000
SAUS46 KLOX 042149
MTRSDB
METAR KSDB 042148Z AUTO 18017G23KT 10SM CLR 32/06 A3004 RMK AO2
SLP105 T03220061





000
SAUS46 KLOX 042149
MTRSDB
METAR KSDB 042148Z AUTO 18017G23KT 10SM CLR 32/06 A3004 RMK AO2
SLP105 T03220061





000
SAUS46 KLOX 042148
MTRCQT
METAR KCQT 042147Z AUTO 10SM CLR 24/16 A2988 RMK AO2 SLP115
T02390156





000
SAUS46 KLOX 042057
MTR9L2
METAR K9L2 042055Z AUTO 21006KT 10SM CLR 38/01 A2984 RMK AO2 SLP078
T03830011 58016 $





000
SAUS46 KLOX 042049
MTRSDB
METAR KSDB 042048Z AUTO 17015G24KT 10SM CLR 32/07 A3006 RMK AO2
SLP109 T03220072 58002





000
SAUS46 KLOX 042048
MTRCQT
METAR KCQT 042047Z AUTO VRB03KT 10SM CLR 24/16 A2988 RMK AO2 SLP117
T02440161 58002





000
SAUS46 KLOX 041957
MTR9L2
METAR K9L2 041955Z AUTO 06003KT 10SM CLR 38/M02 A2986 RMK AO2 SLP083
T03781022 TSNO $





000
SAUS46 KLOX 041949
MTRSDB
METAR KSDB 041948Z AUTO 21013G21KT 10SM CLR 32/08 A3006 RMK AO2
SLP109 T03220083





000
SAUS46 KLOX 041949
MTRSDB
METAR KSDB 041948Z AUTO 21013G21KT 10SM CLR 32/08 A3006 RMK AO2
SLP109 T03220083





000
SAUS46 KLOX 041948
MTRCQT
METAR KCQT 041947Z AUTO 00000KT 10SM CLR 26/16 A2989 RMK AO2 SLP118
T02560161





000
SAUS46 KLOX 041858
MTR9L2
METAR K9L2 041855Z AUTO 00000KT 10SM CLR 35/06 A2987 RMK AO2 SLP090
T03500056 $





000
SAUS46 KLOX 041849
MTRSDB
METAR KSDB 041848Z AUTO 18010KT 10SM CLR 32/08 A3006 RMK AO2 SLP111
T03170083





000
SAUS46 KLOX 041849
MTRSDB
METAR KSDB 041848Z AUTO 18010KT 10SM CLR 32/08 A3006 RMK AO2 SLP111
T03170083





000
SAUS46 KLOX 041848
MTRCQT
METAR KCQT 041847Z AUTO 00000KT 8SM CLR 26/16 A2989 RMK AO2 SLP118
T02560161





000
SAUS46 KLOX 041848
MTRCQT
METAR KCQT 041847Z AUTO 00000KT 8SM CLR 26/16 A2989 RMK AO2 SLP118
T02560161





000
SAUS46 KLOX 041757
MTR9L2
METAR K9L2 041755Z AUTO 00000KT 10SM CLR 33/07 A2989 RMK AO2 SLP094
T03280072 10333 20183 51002 TSNO $





000
SAUS46 KLOX 041757
MTR9L2
METAR K9L2 041755Z AUTO 00000KT 10SM CLR 33/07 A2989 RMK AO2 SLP094
T03280072 10333 20183 51002 TSNO $





000
SAUS46 KLOX 041750
MTRSDB
METAR KSDB 041748Z AUTO 20011KT 10SM CLR 31/08 A3006 RMK AO2 SLP111
T03060083 10306 20217 51005





000
SAUS46 KLOX 041750
MTRSDB
METAR KSDB 041748Z AUTO 20011KT 10SM CLR 31/08 A3006 RMK AO2 SLP111
T03060083 10306 20217 51005





000
SAUS46 KLOX 041748
MTRCQT
METAR KCQT 041747Z AUTO VRB04KT 9SM CLR 23/16 A2989 RMK AO2 SLP119
T02280156 10239 20178 50002





000
SAUS46 KLOX 041657
MTR9L2
METAR K9L2 041655Z AUTO VRB03KT 10SM CLR 31/08 A2988 RMK AO2 SLP094
T03110083 $





000
SAUS46 KLOX 041652
MTRCQT
SPECI KCQT 041651Z AUTO 00000KT 8SM SCT019 22/16 A2989 RMK AO2
T02170156





000
SAUS46 KLOX 041649
MTRSDB
METAR KSDB 041648Z AUTO 22006KT 10SM CLR 28/09 A3006 RMK AO2 SLP114
T02830089





000
SAUS46 KLOX 041648
MTRCQT
METAR KCQT 041647Z AUTO 00000KT 8SM BKN019 22/16 A2989 RMK AO2
SLP121 T02170156





000
SAUS46 KLOX 041557
MTR9L2
METAR K9L2 041555Z AUTO 13006KT 10SM CLR 29/09 A2989 RMK AO2 SLP097
T02940089 $





000
SAUS46 KLOX 041553
MTRCQT
SPECI KCQT 041552Z AUTO 00000KT 8SM OVC015 20/16 A2990 RMK AO2
T02000156





000
SAUS46 KLOX 041553
MTRCQT
SPECI KCQT 041552Z AUTO 00000KT 8SM OVC015 20/16 A2990 RMK AO2
T02000156





000
SAUS46 KLOX 041549
MTRSDB
METAR KSDB 041548Z AUTO 22005KT 10SM CLR 27/09 A3006 RMK AO2 SLP113
T02670094





000
SAUS46 KLOX 041548
MTRCQT
METAR KCQT 041547Z AUTO 00000KT 8SM OVC014 20/16 A2990 RMK AO2
SLP122 T02000156





000
SAUS46 KLOX 041548
MTRCQT
METAR KCQT 041547Z AUTO 00000KT 8SM OVC014 20/16 A2990 RMK AO2
SLP122 T02000156





000
SAUS46 KLOX 041457
MTR9L2
METAR K9L2 041455Z AUTO 20008KT 10SM CLR 26/09 A2988 RMK AO2 SLP094
T02560089 51005 TSNO $





000
SAUS46 KLOX 041457
MTR9L2
METAR K9L2 041455Z AUTO 20008KT 10SM CLR 26/09 A2988 RMK AO2 SLP094
T02560089 51005 TSNO $





000
SAUS46 KLOX 041449
MTRSDB
METAR KSDB 041448Z AUTO 32007KT 10SM CLR 26/09 A3005 RMK AO2 SLP110
T02560089 53004





000
SAUS46 KLOX 041448
MTRCQT
METAR KCQT 041447Z AUTO 00000KT 8SM OVC012 19/15 A2988 RMK AO2
SLP118 T01890150 51005





000
SAUS46 KLOX 041448
MTRCQT
METAR KCQT 041447Z AUTO 00000KT 8SM OVC012 19/15 A2988 RMK AO2
SLP118 T01890150 51005





000
SAUS46 KLOX 041357
MTR9L2
METAR K9L2 041355Z AUTO 00000KT 10SM CLR 19/09 A2988 RMK AO2 SLP095
T01940089 TSNO $





000
SAUS46 KLOX 041349
MTRSDB
METAR KSDB 041348Z AUTO 28005KT 10SM CLR 22/09 A3004 RMK AO2 SLP107
T02220089 $





000
SAUS46 KLOX 041348
MTRCQT
METAR KCQT 041347Z AUTO 00000KT 8SM OVC012 18/15 A2988 RMK AO2
SLP117 T01830150 $





000
SAUS46 KLOX 041348
MTRCQT
METAR KCQT 041347Z AUTO 00000KT 8SM OVC012 18/15 A2988 RMK AO2
SLP117 T01830150 $





000
SAUS46 KLOX 041257
MTR9L2
METAR K9L2 041255Z AUTO 00000KT 10SM CLR 19/07 A2987 RMK AO2 SLP091
T01890072 TSNO $





000
SAUS46 KLOX 041249
MTRSDB
METAR KSDB 041248Z AUTO 33013KT 10SM CLR 22/08 A3003 RMK AO2 SLP103
T02220083 $





000
SAUS46 KLOX 041249
MTRSDB
METAR KSDB 041248Z AUTO 33013KT 10SM CLR 22/08 A3003 RMK AO2 SLP103
T02220083 $





000
SAUS46 KLOX 041248
MTRCQT
METAR KCQT 041247Z AUTO 00000KT 10SM OVC013 18/15 A2988 RMK AO2
SLP115 T01830150 $





000
SAUS46 KLOX 041248
MTRCQT
METAR KCQT 041247Z AUTO 00000KT 10SM OVC013 18/15 A2988 RMK AO2
SLP115 T01830150 $





000
SAUS46 KLOX 041157
MTR9L2
METAR K9L2 041155Z AUTO 19004KT 10SM CLR 20/07 A2986 RMK AO2 SLP088
T02000072 10278 20194 57003 TSNO $





000
SAUS46 KLOX 041157
MTR9L2
METAR K9L2 041155Z AUTO 19004KT 10SM CLR 20/07 A2986 RMK AO2 SLP088
T02000072 10278 20194 57003 TSNO $





000
SAUS46 KLOX 041149
MTRSDB
METAR KSDB 041148Z AUTO 33015KT 10SM CLR 23/09 A3003 RMK AO2 SLP102
T02280094 10250 20222 56008 $





000
SAUS46 KLOX 041148
MTRCQT
METAR KCQT 041147Z AUTO 00000KT 10SM BKN013 18/15 A2987 RMK AO2
SLP112 T01780150 10183 20172 55004 $





000
SAUS46 KLOX 041143
MTRCQT
SPECI KCQT 041142Z AUTO 00000KT 10SM BKN013 18/15 A2987 RMK AO2
T01780150 $





000
SAUS46 KLOX 041102
MTRCQT
SPECI KCQT 041101Z AUTO 00000KT 9SM SCT010 18/15 A2987 RMK AO2
T01780150 $





000
SAUS46 KLOX 041102
MTRCQT
SPECI KCQT 041101Z AUTO 00000KT 9SM SCT010 18/15 A2987 RMK AO2
T01780150 $





000
SAUS46 KLOX 041100
MTR9L2
METAR K9L2 041055Z AUTO 00000KT 10SM CLR 22/08 A2986 RMK AO2 SLP088
T02220083 $





000
SAUS46 KLOX 041049
MTRSDB
METAR KSDB 041048Z AUTO 34011KT 10SM CLR 23/09 A3004 RMK AO2 SLP104
T02280089 $





000
SAUS46 KLOX 041049
MTRCQT
METAR KCQT 041047Z AUTO 00000KT 10SM BKN010 18/15 A2987 RMK AO2
SLP111 T01780150 $





000
SAUS46 KLOX 041049
MTRCQT
METAR KCQT 041047Z AUTO 00000KT 10SM BKN010 18/15 A2987 RMK AO2
SLP111 T01780150 $





000
SAUS46 KLOX 041030
MTRCQT
SPECI KCQT 041029Z AUTO 00000KT 10SM OVC010 18/15 A2987 RMK AO2
T01780150 $





000
SAUS46 KLOX 041030
MTRCQT
SPECI KCQT 041029Z AUTO 00000KT 10SM OVC010 18/15 A2987 RMK AO2
T01780150 $





000
SAUS46 KLOX 041000
MTR9L2
METAR K9L2 040955Z AUTO 20006KT 10SM CLR 23/08 A2987 RMK AO2 SLP088
T02330083 $





000
SAUS46 KLOX 040949
MTRSDB
METAR KSDB 040948Z AUTO 35012KT 10SM CLR 23/10 A3005 RMK AO2 SLP108
T02280100 $





000
SAUS46 KLOX 040949
MTRCQT
METAR KCQT 040947Z AUTO 00000KT 10SM OVC009 17/15 A2987 RMK AO2
SLP113 T01720150 $





000
SAUS46 KLOX 040858
MTR9L2
METAR K9L2 040855Z AUTO 20007KT 10SM CLR 24/08 A2987 RMK AO2 SLP090
T02390083 58003 $





000
SAUS46 KLOX 040849
MTRSDB
METAR KSDB 040848Z AUTO 36008G17KT 340V040 10SM CLR 23/10 A3006 RMK
AO2 SLP111 T02330100 56008 $





000
SAUS46 KLOX 040848
MTRCQT
METAR KCQT 040847Z AUTO 00000KT 10SM OVC009 17/15 A2988 RMK AO2
SLP116 T01720150 58003 $





000
SAUS46 KLOX 040757
MTR9L2
METAR K9L2 040755Z AUTO 20011KT 10SM CLR 25/09 A2987 RMK AO2 SLP090
T02500089 403890206 $





000
SAUS46 KLOX 040757
MTR9L2
METAR K9L2 040755Z AUTO 20011KT 10SM CLR 25/09 A2987 RMK AO2 SLP090
T02500089 403890206 $





000
SAUS46 KLOX 040750
MTRSDB
METAR KSDB 040748Z AUTO 33012KT 10SM CLR 24/11 A3007 RMK AO2 SLP112
T02390111 403280183 $





000
SAUS46 KLOX 040748
MTRCQT
METAR KCQT 040747Z AUTO 00000KT 10SM BKN009 17/15 A2989 RMK AO2
SLP117 T01720150 402670172 $





000
SAUS46 KLOX 040748
MTRCQT
METAR KCQT 040747Z AUTO 00000KT 10SM BKN009 17/15 A2989 RMK AO2
SLP117 T01720150 402670172 $





000
SAUS46 KLOX 040700
MTR9L2
METAR K9L2 040655Z AUTO 20010KT 10SM CLR 27/09 A2988 RMK AO2 SLP094
T02670089 $





000
SAUS46 KLOX 040650
MTRSDB
METAR KSDB 040648Z AUTO 35015KT 10SM CLR 24/11 A3008 RMK AO2 SLP119
T02390111 $





000
SAUS46 KLOX 040648
MTRCQT
METAR KCQT 040647Z AUTO 00000KT 10SM OVC009 18/15 A2989 RMK AO2
SLP119 T01780150 $





000
SAUS46 KLOX 040627
MTRCQT
SPECI KCQT 040626Z AUTO 00000KT 10SM OVC009 18/16 A2989 RMK AO2
T01830156 $





000
SAUS46 KLOX 040613
MTRCQT
SPECI KCQT 040611Z AUTO 00000KT 10SM BKN010 18/16 A2989 RMK AO2
T01830156 $





000
SAUS46 KLOX 040600
MTR9L2
METAR K9L2 040555Z AUTO 20011KT 10SM CLR 28/09 A2988 RMK AO2 SLP093
T02780089 10383 20278 51015 $





000
SAUS46 KLOX 040549
MTRSDB
METAR KSDB 040548Z AUTO 35010KT 10SM CLR 25/12 A3009 RMK AO2 SLP122
T02500117 10317 20244 53010 $





000
SAUS46 KLOX 040548
MTRCQT
METAR KCQT 040547Z AUTO 00000KT 10SM BKN009 18/16 A2989 RMK AO2
SLP119 T01830156 10233 20178 51017 $





000
SAUS46 KLOX 040511
MTRCQT
SPECI KCQT 040510Z AUTO 00000KT 10SM BKN009 18/16 A2988 RMK AO2
T01830156 $





000
SAUS46 KLOX 040500
MTR9L2
METAR K9L2 040455Z AUTO 20007KT 10SM CLR 29/08 A2987 RMK AO2 SLP089
T02940083 $





000
SAUS46 KLOX 040500
MTR9L2
METAR K9L2 040455Z AUTO 20007KT 10SM CLR 29/08 A2987 RMK AO2 SLP089
T02940083 $





000
SAUS46 KLOX 040449
MTRSDB
METAR KSDB 040448Z AUTO 33014G20KT 10SM CLR 24/12 A3008 RMK AO2
SLP121 T02440117 $





000
SAUS46 KLOX 040449
MTRSDB
METAR KSDB 040448Z AUTO 33014G20KT 10SM CLR 24/12 A3008 RMK AO2
SLP121 T02440117 $





000
SAUS46 KLOX 040448
MTRCQT
METAR KCQT 040447Z AUTO 00000KT 10SM SCT009 18/16 A2988 RMK AO2
SLP114 T01830156 $





000
SAUS46 KLOX 040448
MTRCQT
METAR KCQT 040447Z AUTO 00000KT 10SM SCT009 18/16 A2988 RMK AO2
SLP114 T01830156 $





000
SAUS46 KLOX 040446
MTRCQT
SPECI KCQT 040444Z AUTO 00000KT 10SM SCT009 18/16 A2987 RMK AO2
T01830156 $





000
SAUS46 KLOX 040417
MTRCQT
SPECI KCQT 040416Z AUTO 00000KT 10SM BKN009 18/16 A2986 RMK AO2
T01830156 $





000
SAUS46 KLOX 040417
MTRCQT
SPECI KCQT 040416Z AUTO 00000KT 10SM BKN009 18/16 A2986 RMK AO2
T01830156 $





000
SAUS46 KLOX 040403
MTRCQT
SPECI KCQT 040403Z AUTO 27003KT 10SM SCT009 18/16 A2986 RMK AO2
T01830156 $





000
SAUS46 KLOX 040402
MTRCQT
SPECI KCQT 040400Z AUTO 00000KT 10SM BKN009 18/16 A2986 RMK AO2
T01830156 $





000
SAUS46 KLOX 040400
MTR9L2
METAR K9L2 040355Z AUTO 25005KT 10SM CLR 32/08 A2985 RMK AO2 SLP081
T03170078 $





000
SAUS46 KLOX 040349
MTRSDB
METAR KSDB 040348Z AUTO 28007KT 10SM CLR 26/11 A3006 RMK AO2 SLP116
T02560106 $





000
SAUS46 KLOX 040348
MTRCQT
METAR KCQT 040347Z AUTO 00000KT 10SM FEW009 18/16 A2986 RMK AO2
SLP108 T01830156 $





000
SAUS46 KLOX 040337
MTRCQT
SPECI KCQT 040336Z AUTO 00000KT 10SM SCT009 18/16 A2985 RMK AO2
T01830156 $





000
SAUS46 KLOX 040300
MTR9L2
METAR K9L2 040255Z AUTO 24010G20KT 10SM CLR 33/07 A2983 RMK AO2
SLP077 T03280072 55001 $





000
SAUS46 KLOX 040249
MTRSDB
METAR KSDB 040248Z AUTO 22005KT 10SM CLR 26/08 A3006 RMK AO2 SLP114
T02610078 55005 $





000
SAUS46 KLOX 040249
MTRSDB
METAR KSDB 040248Z AUTO 22005KT 10SM CLR 26/08 A3006 RMK AO2 SLP114
T02610078 55005 $





000
SAUS46 KLOX 040248
MTRCQT
METAR KCQT 040247Z AUTO VRB03KT 10SM CLR 19/15 A2984 RMK AO2 SLP103
T01940150 55004 $





000
SAUS46 KLOX 040158
MTR9L2
METAR K9L2 040155Z AUTO 23016G21KT 10SM CLR 36/01 A2982 RMK AO2
SLP072 T03560006 $





000
SAUS46 KLOX 040158
MTR9L2
METAR K9L2 040155Z AUTO 23016G21KT 10SM CLR 36/01 A2982 RMK AO2
SLP072 T03560006 $





000
SAUS46 KLOX 040149
MTRSDB
METAR KSDB 040148Z AUTO 19008KT 10SM CLR 29/08 A3005 RMK AO2 SLP112
T02940083 $





000
SAUS46 KLOX 040148
MTRCQT
METAR KCQT 040147Z AUTO 28007KT 10SM CLR 21/14 A2983 RMK AO2 SLP100
T02110144 $





000
SAUS46 KLOX 040100
MTR9L2
METAR K9L2 040055Z AUTO 23014KT 10SM CLR 37/M03 A2982 RMK AO2 SLP073
T03721033 TSNO $





000
SAUS46 KLOX 040100
MTR9L2
METAR K9L2 040055Z AUTO 23014KT 10SM CLR 37/M03 A2982 RMK AO2 SLP073
T03721033 TSNO $





000
SAUS46 KLOX 040049
MTRSDB
METAR KSDB 040048Z AUTO 17008KT 10SM CLR 31/08 A3006 RMK AO2 SLP114
T03110078 $





000
SAUS46 KLOX 040048
MTRCQT
METAR KCQT 040047Z AUTO VRB04KT 10SM CLR 22/16 A2984 RMK AO2 SLP104
T02170156 $





000
SAUS46 KLOX 040048
MTRCQT
METAR KCQT 040047Z AUTO VRB04KT 10SM CLR 22/16 A2984 RMK AO2 SLP104
T02170156 $





000
SAUS46 KLOX 032357
MTR9L2
METAR K9L2 032355Z AUTO 24013G20KT 10SM CLR 38/M03 A2984 RMK AO2
SLP077 T03831033 10389 20333 56020 TSNO $





000
SAUS46 KLOX 032349
MTRCQT
METAR KCQT 032347Z AUTO 27008KT 10SM CLR 23/16 A2985 RMK AO2 SLP106
T02330161 10267 20233 58018 $





000
SAUS46 KLOX 032349
MTRSDB
METAR KSDB 032348Z AUTO 18011KT 10SM CLR 32/08 A3007 RMK AO2 SLP119
T03170083 10328 20289 57009 $





000
SAUS46 KLOX 032300
MTR9L2
METAR K9L2 032255Z AUTO 19008G17KT 10SM CLR 38/M03 A2985 RMK AO2
SLP082 T03831033 TSNO $





000
SAUS46 KLOX 032249
MTRCQT
METAR KCQT 032247Z AUTO VRB04KT 10SM CLR 24/16 A2986 RMK AO2 SLP110
T02390161 $





000
SAUS46 KLOX 032249
MTRSDB
METAR KSDB 032248Z AUTO 16012G17KT 10SM CLR 32/08 A3008 RMK AO2
SLP122 T03170078 $





    US Dept of Commerce
    National Oceanic and Atmospheric Administration
    National Weather Service
    1325 East West Highway
    Silver Spring, MD 20910
    Page Author: NWS Internet Services Team
Disclaimer
Information Quality
Credits
Glossary
Privacy Policy
Freedom of Information Act (FOIA)
About Us
Career Opportunities